Verga, New Jersey
Current Conditions -  °F | °C
As of 2:54 PM on Thursday 27 Nov 2014 (Local Time) from KPHL Reporting Station
Broken Clouds Broken Clouds  
Wind Chill: 34°   Ceiling: 5500
Heat Index: 41°   Visibility: 10mi
Dew Point: 28°   Wind: 12mph
Humidity: 60%   Direction: 320°NW
Pressure: 30.03"   Gusts: NA
Location:  39.8615°N, 75.1346°W
Report Text: KPHL 271954Z 32010KT 10SM BKN055 05/M02 A3003 RMK AO2 SLP169 T00501022 $
Loading
Personal Weather Stations






























Interactive Weather Map New forecast layout! Learn more

10-Day Weather Forecast

Advertisements
Track Severe Weather on mobile